Time;durP1;ratioP1;P1;durP2;ratioP2;P2;SDS_P1;SDS_P2;PMS_P1;PMS_P2;Temp;Humidity;BMP_temperature;BMP_pressure;BME280_temperature;BME280_humidity;BME280_pressure;Samples;Min_cycle;Max_cycle;Signal;HPM_P1;HPM_P2
2021/04/30 00:04:44;;;;;;;7.03;6.53;;;;;;;8.82;54.92;99346.09;10483772;28;20098;-73
2021/04/30 00:09:45;;;;;;;6.80;6.20;;;;;;;8.58;55.10;99348.66;10483634;28;20516;-73
2021/04/30 00:14:47;;;;;;;6.70;6.13;;;;;;;8.43;55.43;99343.97;10482382;28;20144;-72
2021/04/30 00:19:48;;;;;;;7.20;6.70;;;;;;;8.31;56.03;99354.81;10484977;28;20079;-72
2021/04/30 00:24:49;;;;;;;7.13;6.53;;;;;;;8.21;55.62;99348.16;10501646;28;20041;-73
2021/04/30 00:29:51;;;;;;;8.13;7.53;;;;;;;8.06;56.28;99350.41;10500258;28;20036;-72
2021/04/30 00:34:52;;;;;;;7.80;7.30;;;;;;;7.98;55.99;99368.09;10500630;28;20052;-73
2021/04/30 00:39:53;;;;;;;8.40;7.90;;;;;;;7.96;55.59;99369.03;10482856;28;20045;-72
2021/04/30 00:44:54;;;;;;;8.85;8.20;;;;;;;7.94;55.42;99371.72;10499604;28;20093;-73
2021/04/30 00:49:56;;;;;;;9.55;8.85;;;;;;;7.80;55.10;99372.16;10502667;28;20064;-73
2021/04/30 00:55:01;;;;;;;8.32;7.82;;;;;;;7.65;55.46;99370.00;10489222;28;20044;-73
2021/04/30 01:00:04;;;;;;;9.73;9.13;;;;;;;7.64;56.00;99357.81;10490529;28;20040;-72
2021/04/30 01:05:08;;;;;;;10.05;9.07;;;;;;;7.48;56.39;99388.81;10489927;28;20048;-73
2021/04/30 01:10:11;;;;;;;9.43;8.82;;;;;;;7.52;56.23;99393.03;10509341;28;20111;-72
2021/04/30 01:15:14;;;;;;;10.65;9.95;;;;;;;7.43;56.50;99395.06;10472827;28;20052;-72
2021/04/30 01:20:18;;;;;;;10.80;10.05;;;;;;;7.33;57.07;99391.88;10489280;28;20041;-73
2021/04/30 01:25:27;;;;;;;10.63;9.82;;;;;;;7.38;56.75;99389.13;10506383;28;20053;-72
2021/04/30 01:30:31;;;;;;;10.45;9.60;;;;;;;7.34;56.84;99393.56;10505961;28;20040;-72
2021/04/30 01:35:34;;;;;;;10.95;10.15;;;;;;;7.18;57.40;99387.09;10505492;28;20128;-73
2021/04/30 01:40:36;;;;;;;12.27;11.48;;;;;;;7.11;57.66;99412.53;10488612;28;20072;-73
2021/04/30 01:45:53;;;;;;;11.55;10.75;;;;;;;7.25;57.05;99420.84;10506743;28;20052;-73
2021/04/30 01:51:00;;;;;;;11.73;10.93;;;;;;;7.20;57.05;99430.56;10506461;28;20055;-73
2021/04/30 01:56:14;;;;;;;12.53;11.63;;;;;;;7.00;57.78;99423.28;10505879;28;20086;-72
2021/04/30 02:01:16;;;;;;;11.23;10.52;;;;;;;7.11;57.16;99430.81;10486908;28;20044;-73
2021/04/30 02:06:18;;;;;;;12.52;11.63;;;;;;;7.00;57.10;99423.28;10505023;28;20048;-73
2021/04/30 02:11:19;;;;;;;11.73;10.93;;;;;;;7.02;57.27;99426.69;10504225;28;20094;-73
2021/04/30 02:16:20;;;;;;;11.43;10.63;;;;;;;6.72;57.96;99436.19;10504853;28;20036;-73
2021/04/30 02:21:21;;;;;;;11.57;10.77;;;;;;;6.93;57.13;99429.56;10504603;28;20119;-73
2021/04/30 02:26:25;;;;;;;12.02;11.10;;;;;;;6.86;57.06;99429.75;10503822;28;20090;-72
2021/04/30 02:31:26;;;;;;;10.82;10.02;;;;;;;6.83;57.08;99428.09;10488984;28;20040;-72
2021/04/30 02:36:28;;;;;;;11.55;10.75;;;;;;;6.82;56.90;99426.41;10504796;28;20092;-72
2021/04/30 02:41:29;;;;;;;10.77;9.95;;;;;;;6.75;56.34;99423.06;10505258;28;20033;-72
2021/04/30 02:46:30;;;;;;;11.10;10.35;;;;;;;6.73;56.87;99434.44;10504245;28;20048;-72
2021/04/30 02:51:33;;;;;;;11.73;10.93;;;;;;;6.77;56.36;99425.63;10486439;28;20036;-72
2021/04/30 02:56:35;;;;;;;10.88;10.15;;;;;;;6.85;55.93;99431.50;10503770;28;20053;-72
2021/04/30 03:01:36;;;;;;;10.50;9.80;;;;;;;6.86;55.79;99432.38;10484642;28;20074;-72
2021/04/30 03:06:38;;;;;;;11.45;10.65;;;;;;;6.80;55.80;99442.09;10486439;28;20058;-73
2021/04/30 03:11:40;;;;;;;10.93;10.13;;;;;;;6.81;55.87;99451.63;10503678;28;20087;-73
2021/04/30 03:16:41;;;;;;;10.02;9.32;;;;;;;6.87;55.53;99444.56;10503784;28;20044;-72
2021/04/30 03:21:43;;;;;;;10.10;9.40;;;;;;;6.86;55.89;99454.13;10504474;28;20135;-72
2021/04/30 03:26:44;;;;;;;10.95;10.15;;;;;;;6.81;55.97;99456.00;10486535;28;20050;-73
2021/04/30 03:31:46;;;;;;;10.88;10.07;;;;;;;6.66;56.08;99445.97;10504367;28;20098;-73
2021/04/30 03:36:47;;;;;;;11.93;10.93;;;;;;;6.69;56.49;99453.72;10504295;28;20068;-73
2021/04/30 03:41:49;;;;;;;11.48;10.68;;;;;;;6.67;56.19;99451.13;10487057;28;20051;-72
2021/04/30 03:46:50;;;;;;;11.73;10.82;;;;;;;6.63;56.07;99454.72;10486257;28;20044;-72
2021/04/30 03:51:51;;;;;;;11.43;10.52;;;;;;;6.65;56.53;99465.16;10503472;28;20094;-72
2021/04/30 03:56:52;;;;;;;12.25;11.25;;;;;;;6.58;56.32;99472.25;10502239;28;20044;-73
2021/04/30 04:01:54;;;;;;;12.70;11.50;;;;;;;6.51;56.61;99481.16;10502954;28;20090;-73
2021/04/30 04:06:56;;;;;;;12.98;11.98;;;;;;;6.54;56.50;99476.69;10503579;28;20048;-73
2021/04/30 04:11:57;;;;;;;13.35;12.45;;;;;;;6.59;56.61;99489.63;10504016;28;20094;-73
2021/04/30 04:16:58;;;;;;;14.40;13.32;;;;;;;6.61;56.57;99495.69;10494104;28;20048;-73
2021/04/30 04:22:17;;;;;;;13.57;12.57;;;;;;;6.60;57.55;99493.97;10502430;28;20417;-74
2021/04/30 04:27:18;;;;;;;12.02;11.23;;;;;;;6.63;56.36;99496.50;10492465;28;20045;-73
2021/04/30 04:32:20;;;;;;;13.35;12.40;;;;;;;6.70;56.77;99497.22;10491940;28;20048;-73
2021/04/30 04:37:21;;;;;;;13.35;12.40;;;;;;;6.72;56.86;99511.09;10493275;28;20040;-73
2021/04/30 04:42:22;;;;;;;14.57;12.57;;;;;;;6.80;56.69;99511.75;10509184;28;20094;-73
2021/04/30 04:47:23;;;;;;;13.80;12.80;;;;;;;6.88;56.30;99516.81;10509388;28;20048;-74
2021/04/30 04:52:26;;;;;;;13.23;12.23;;;;;;;7.00;56.65;99516.50;10506142;28;20099;-73
2021/04/30 04:57:28;;;;;;;13.05;12.15;;;;;;;7.08;56.14;99519.75;10506987;28;20045;-74
2021/04/30 05:02:29;;;;;;;14.15;13.05;;;;;;;7.14;56.31;99529.22;10489959;28;20044;-73
2021/04/30 05:07:30;;;;;;;13.38;12.38;;;;;;;7.13;56.42;99541.44;10509753;28;20048;-74
2021/04/30 05:12:32;;;;;;;13.90;12.80;;;;;;;7.16;56.17;99541.31;10508535;28;20408;-72
2021/04/30 05:17:33;;;;;;;14.07;12.98;;;;;;;7.19;56.44;99541.25;10509122;28;20121;-73
2021/04/30 05:22:34;;;;;;;13.32;12.43;;;;;;;7.41;55.66;99546.78;10509036;28;20045;-72
2021/04/30 05:27:36;;;;;;;12.98;11.80;;;;;;;7.50;55.40;99548.28;10505945;28;20095;-73
2021/04/30 05:32:37;;;;;;;15.23;14.02;;;;;;;7.59;55.60;99548.91;10505431;28;20048;-72
2021/04/30 05:37:39;;;;;;;14.98;13.52;;;;;;;7.60;56.05;99549.75;10504997;28;20036;-74
2021/04/30 05:42:41;;;;;;;12.63;11.70;;;;;;;7.55;55.55;99547.25;10504611;28;20044;-73
2021/04/30 05:47:43;;;;;;;14.27;13.18;;;;;;;7.68;55.06;99555.63;10486618;28;20044;-73
2021/04/30 05:52:44;;;;;;;13.57;12.57;;;;;;;7.86;55.36;99553.41;10504319;28;20094;-74
2021/04/30 05:57:46;;;;;;;12.85;11.95;;;;;;;7.95;55.19;99556.63;10503795;28;20091;-73
2021/04/30 06:02:47;;;;;;;13.20;12.30;;;;;;;8.05;54.97;99559.81;10504766;28;20040;-73
2021/04/30 06:07:49;;;;;;;11.90;11.00;;;;;;;8.00;54.89;99559.94;10487473;28;20510;-74
2021/04/30 06:12:50;;;;;;;12.68;11.77;;;;;;;8.38;54.17;99552.78;10487839;28;20044;-73
2021/04/30 06:17:51;;;;;;;12.55;11.52;;;;;;;8.50;53.71;99559.38;10489778;28;20086;-73
2021/04/30 06:22:52;;;;;;;12.52;11.63;;;;;;;8.56;54.00;99554.81;10505696;28;20044;-74
2021/04/30 06:27:54;;;;;;;13.20;12.20;;;;;;;8.71;53.27;99571.81;10506122;28;22008;-72
2021/04/30 06:32:55;;;;;;;11.95;11.02;;;;;;;8.72;53.76;99581.41;10507948;28;20049;-72
2021/04/30 06:37:57;;;;;;;13.15;12.00;;;;;;;8.79;53.20;99577.66;10562981;28;20055;-73
2021/04/30 06:42:58;;;;;;;11.63;10.80;;;;;;;9.29;52.82;99582.16;10589541;28;20497;-73
2021/04/30 06:48:00;;;;;;;11.63;10.50;;;;;;;9.76;52.21;99583.16;10587962;28;20036;-74
2021/04/30 06:53:02;;;;;;;12.52;11.52;;;;;;;9.69;51.19;99588.66;10542645;28;20082;-73
2021/04/30 06:58:03;;;;;;;11.40;10.60;;;;;;;9.91;51.89;99583.50;10528165;28;20044;-72
2021/04/30 07:03:04;;;;;;;12.55;10.38;;;;;;;10.17;51.33;99593.06;10545853;28;20127;-74
2021/04/30 07:08:09;;;;;;;12.93;11.75;;;;;;;10.09;52.14;99604.72;10545006;28;20043;-72
2021/04/30 07:13:13;;;;;;;11.73;10.90;;;;;;;10.30;50.49;99602.22;10544724;28;20047;-73
2021/04/30 07:18:15;;;;;;;12.30;11.40;;;;;;;10.76;49.72;99613.63;10527387;28;20047;-73
2021/04/30 07:23:16;;;;;;;12.70;11.65;;;;;;;10.46;51.23;99615.66;10545301;28;20048;-73
2021/04/30 07:28:18;;;;;;;12.38;11.38;;;;;;;9.97;51.15;99625.31;10544539;28;20040;-74
2021/04/30 07:33:19;;;;;;;12.82;11.85;;;;;;;9.72;51.70;99628.78;10527340;28;20066;-72
2021/04/30 07:38:21;;;;;;;14.02;12.27;;;;;;;9.59;52.07;99630.97;10544659;28;20036;-73
2021/04/30 07:43:23;;;;;;;12.75;11.77;;;;;;;9.61;52.04;99628.31;10543678;28;20052;-74
2021/04/30 07:48:24;;;;;;;12.68;11.77;;;;;;;9.71;52.38;99615.72;10543665;28;20046;-73
2021/04/30 07:53:32;;;;;;;12.25;11.45;;;;;;;10.03;51.18;99633.81;10542593;28;20048;-73
2021/04/30 07:58:35;;;;;;;13.93;12.93;;;;;;;10.14;51.65;99630.81;10543755;28;20040;-73
2021/04/30 08:03:37;;;;;;;11.85;11.05;;;;;;;10.43;51.92;99642.03;10551406;28;20052;-72
2021/04/30 08:08:40;;;;;;;13.80;12.40;;;;;;;10.59;51.26;99646.66;10552002;28;20089;-73
2021/04/30 08:13:41;;;;;;;13.35;12.35;;;;;;;10.57;50.94;99653.72;10550941;28;20055;-72
2021/04/30 08:18:43;;;;;;;13.35;12.45;;;;;;;10.54;51.00;99647.75;10553068;28;20509;-72
2021/04/30 08:23:44;;;;;;;12.30;11.32;;;;;;;10.52;51.38;99639.06;10550283;28;20086;-72
2021/04/30 08:28:45;;;;;;;12.38;11.27;;;;;;;10.80;50.54;99649.38;10551038;28;20551;-72
2021/04/30 08:33:47;;;;;;;12.75;11.75;;;;;;;11.17;50.31;99656.69;10551520;28;20101;-72
2021/04/30 08:38:48;;;;;;;12.07;11.18;;;;;;;10.93;50.22;99655.00;10551829;28;20063;-73
2021/04/30 08:43:51;;;;;;;11.88;11.07;;;;;;;11.06;50.22;99658.88;10533047;28;20370;-72
2021/04/30 08:48:52;;;;;;;12.30;11.38;;;;;;;11.55;50.18;99660.38;10551002;28;20052;-72
2021/04/30 08:53:53;;;;;;;13.35;12.30;;;;;;;10.99;50.89;99662.69;10550335;28;20056;-72
2021/04/30 08:58:55;;;;;;;14.40;13.07;;;;;;;11.07;50.67;99660.59;10550037;28;20070;-72
2021/04/30 09:03:56;;;;;;;11.95;11.25;;;;;;;11.51;49.03;99671.06;10548765;28;20546;-72
2021/04/30 09:09:12;;;;;;;13.63;12.40;;;;;;;11.68;48.66;99662.47;10530175;28;20108;-73
2021/04/30 09:14:35;;;;;;;10.13;9.32;;;;;;;12.03;48.64;99667.13;10524166;28;20048;-73
2021/04/30 09:19:39;;;;;;;10.63;9.93;;;;;;;12.49;47.39;99670.38;10550097;28;20102;-73
2021/04/30 09:24:41;;;;;;;10.88;10.07;;;;;;;12.69;46.18;99679.13;10549558;28;20044;-72
2021/04/30 09:29:42;;;;;;;11.73;10.90;;;;;;;12.20;47.49;99681.34;10548167;28;20119;-72
2021/04/30 09:34:44;;;;;;;11.27;10.48;;;;;;;12.13;49.40;99678.13;10547964;28;20413;-72
2021/04/30 09:39:50;;;;;;;10.15;9.52;;;;;;;13.08;45.61;99676.41;10531136;28;20055;-72
2021/04/30 09:45:11;;;;;;;9.95;9.25;;;;;;;13.13;46.50;99675.25;10532960;28;20048;-74
2021/04/30 09:50:24;;;;;;;11.05;10.25;;;;;;;12.59;46.75;99665.53;10530156;28;20047;-73
2021/04/30 09:55:49;;;;;;;10.57;9.88;;;;;;;12.81;46.87;99658.31;10529605;28;20036;-73
2021/04/30 10:00:52;;;;;;;10.32;9.52;;;;;;;12.79;47.57;99670.75;10528179;28;20040;-72
2021/04/30 10:05:59;;;;;;;10.95;10.10;;;;;;;12.80;48.97;99672.44;10513078;28;20164;-73
2021/04/30 10:11:01;;;;;;;10.97;10.17;;;;;;;13.10;47.19;99664.88;10547093;28;20069;-73
2021/04/30 10:16:18;;;;;;;10.20;9.15;;;;;;;13.50;47.25;99662.97;10505969;28;20287;-73
2021/04/30 10:21:20;;;;;;;10.77;9.98;;;;;;;13.31;45.78;99660.34;10510300;28;20039;-73
2021/04/30 10:26:22;;;;;;;10.73;9.93;;;;;;;13.09;46.96;99663.13;10545910;28;20418;-73
2021/04/30 10:36:59;;;;;;;10.45;9.85;;;;;;;12.42;48.70;99666.28;10457924;28;20147;-72
2021/04/30 10:42:12;;;;;;;12.85;11.95;;;;;;;12.10;49.32;99670.34;10450053;28;20056;-73
2021/04/30 10:47:16;;;;;;;12.10;11.30;;;;;;;12.23;49.84;99678.59;10430730;28;20055;-71
2021/04/30 10:52:21;;;;;;;11.73;10.82;;;;;;;11.82;50.34;99662.75;10416224;28;20072;-72
2021/04/30 10:57:23;;;;;;;12.07;11.30;;;;;;;11.90;51.46;99663.31;10415640;28;20084;-72
2021/04/30 11:02:30;;;;;;;13.60;12.80;;;;;;;11.79;50.19;99669.00;10415418;28;20509;-73
2021/04/30 11:07:31;;;;;;;;;;;;;;;11.67;51.29;99660.78;10400031;28;20084;-72
2021/04/30 11:12:32;;;;;;;13.15;12.25;;;;;;;11.82;52.07;99657.47;10457338;28;19920;-72
2021/04/30 11:17:50;;;;;;;12.20;11.45;;;;;;;12.03;49.75;99671.53;10501764;28;20044;-72
2021/04/30 11:23:10;;;;;;;13.07;12.27;;;;;;;12.18;50.56;99678.78;10500687;28;20040;-72
2021/04/30 11:28:11;;;;;;;12.88;12.00;;;;;;;12.47;49.51;99669.56;10586635;23;20043;-73
2021/04/30 11:33:14;;;;;;;12.95;12.15;;;;;;;12.68;48.41;99661.59;10585183;28;20035;-73
2021/04/30 11:38:15;;;;;;;13.05;12.25;;;;;;;12.63;49.51;99670.59;10584684;28;20093;-74
2021/04/30 11:43:19;;;;;;;12.93;12.13;;;;;;;12.47;49.43;99677.47;10583903;28;20051;-73
2021/04/30 11:48:26;;;;;;;13.60;12.57;;;;;;;12.67;49.11;99683.63;10583542;28;20032;-73
2021/04/30 11:53:27;;;;;;;15.18;14.27;;;;;;;12.64;48.52;99681.97;10581903;28;20055;-73
2021/04/30 11:58:35;;;;;;;15.43;14.52;;;;;;;12.94;48.35;99670.94;10585786;28;20482;-73
2021/04/30 12:03:43;;;;;;;15.13;14.23;;;;;;;12.74;49.29;99667.44;10584826;28;20100;-73
2021/04/30 12:08:47;;;;;;;16.17;15.27;;;;;;;12.70;49.72;99665.00;10584715;28;20042;-73
2021/04/30 12:13:50;;;;;;;17.67;16.58;;;;;;;12.87;48.65;99665.94;10584315;28;20048;-74
2021/04/30 12:18:55;;;;;;;17.33;16.08;;;;;;;12.89;48.52;99663.25;10583876;28;20458;-73
2021/04/30 12:23:57;;;;;;;16.23;15.32;;;;;;;13.48;45.91;99648.97;10585535;28;20051;-73
2021/04/30 12:28:59;;;;;;;13.65;12.82;;;;;;;13.11;46.51;99648.09;10583905;28;20096;-73
2021/04/30 12:34:01;;;;;;;15.65;14.68;;;;;;;12.47;49.35;99653.75;10584543;28;20047;-72
2021/04/30 12:39:08;;;;;;;15.68;14.77;;;;;;;12.85;49.09;99643.22;10583747;28;20096;-73
2021/04/30 12:44:11;;;;;;;14.57;13.25;;;;;;;12.71;48.86;99641.22;10584506;28;20040;-73
2021/04/30 12:49:15;;;;;;;14.15;13.20;;;;;;;12.77;48.65;99651.47;10590753;28;20043;-73
2021/04/30 12:54:17;;;;;;;13.63;12.82;;;;;;;13.03;47.48;99663.44;10591134;28;20533;-73
2021/04/30 12:59:21;;;;;;;12.68;11.55;;;;;;;13.09;48.38;99638.53;10589806;28;20496;-73
2021/04/30 13:04:24;;;;;;;12.30;11.40;;;;;;;13.41;47.74;99636.97;10591221;28;20066;-72
2021/04/30 13:09:26;;;;;;;13.20;12.15;;;;;;;13.46;47.91;99627.06;10591075;28;20047;-74
2021/04/30 13:14:40;;;;;;;11.82;11.13;;;;;;;13.68;47.57;99640.06;10591796;28;20484;-73
2021/04/30 13:19:42;;;;;;;12.07;11.27;;;;;;;13.43;48.13;99643.06;10590411;28;20036;-73
2021/04/30 13:24:45;;;;;;;12.65;11.88;;;;;;;13.31;48.12;99641.03;10591145;28;20048;-72
2021/04/30 13:29:52;;;;;;;13.43;12.52;;;;;;;13.10;48.97;99637.59;10590150;28;20075;-73
2021/04/30 13:34:55;;;;;;;12.90;12.10;;;;;;;13.34;49.37;99636.44;10590749;28;20058;-74
2021/04/30 13:40:05;;;;;;;12.98;12.18;;;;;;;13.21;48.81;99631.81;10591849;28;20099;-73
2021/04/30 13:45:12;;;;;;;13.05;11.90;;;;;;;13.16;49.40;99629.41;10590777;28;20471;-72
2021/04/30 13:50:21;;;;;;;13.02;12.13;;;;;;;13.30;49.08;99612.91;10589775;28;20059;-74
2021/04/30 13:55:23;;;;;;;11.98;11.13;;;;;;;12.99;49.23;99603.84;10589544;28;20382;-72
2021/04/30 14:00:25;;;;;;;13.07;12.27;;;;;;;13.13;49.06;99611.06;10588597;28;20044;-72
2021/04/30 14:05:26;;;;;;;12.98;12.02;;;;;;;12.87;49.18;99618.47;10588340;28;20066;-74
2021/04/30 14:10:27;;;;;;;12.45;11.48;;;;;;;12.95;49.35;99620.75;10588300;28;20119;-73
2021/04/30 14:15:29;;;;;;;11.75;10.95;;;;;;;13.05;49.06;99618.50;10588888;28;20044;-74
2021/04/30 14:20:30;;;;;;;11.13;10.43;;;;;;;12.78;48.51;99625.97;10585443;28;20508;-74
2021/04/30 14:25:33;;;;;;;10.85;10.05;;;;;;;12.86;48.96;99637.00;10584046;27;20051;-75
2021/04/30 14:30:34;;;;;;;10.73;10.02;;;;;;;12.76;49.16;99639.22;10584318;28;20520;-74
2021/04/30 14:35:35;;;;;;;9.60;8.98;;;;;;;12.81;48.72;99636.38;10586894;28;20479;-74
2021/04/30 14:40:37;;;;;;;8.90;8.30;;;;;;;12.20;49.65;99644.47;10587792;28;20051;-74
2021/04/30 14:45:38;;;;;;;8.82;8.30;;;;;;;12.20;50.04;99655.84;10589658;28;20055;-73
2021/04/30 14:50:39;;;;;;;7.82;7.22;;;;;;;12.29;49.23;99657.22;10588699;28;20067;-75
2021/04/30 14:55:40;;;;;;;9.93;9.27;;;;;;;12.21;49.05;99667.25;10587865;28;20073;-75
2021/04/30 15:00:43;;;;;;;10.90;10.00;;;;;;;12.02;49.92;99665.41;10587878;28;20038;-73
2021/04/30 15:05:46;;;;;;;15.27;10.40;;;;;;;12.37;49.79;99673.53;10588486;28;20039;-74
2021/04/30 15:10:51;;;;;;;9.93;9.23;;;;;;;12.17;50.62;99670.94;10585348;28;20044;-73
2021/04/30 15:15:52;;;;;;;11.30;10.27;;;;;;;12.09;51.61;99680.03;10583537;28;20071;-73
2021/04/30 15:20:54;;;;;;;10.75;9.77;;;;;;;12.09;51.66;99672.13;10581482;28;20510;-73
2021/04/30 15:25:55;;;;;;;12.20;10.80;;;;;;;12.13;51.80;99672.88;10583630;28;20043;-73
2021/04/30 15:30:57;;;;;;;9.05;8.18;;;;;;;11.92;51.51;99669.38;10585154;28;20163;-73
2021/04/30 15:35:59;;;;;;;25.05;7.45;;;;;;;12.02;50.29;99668.06;10585631;28;20040;-74
2021/04/30 15:41:02;;;;;;;13.27;7.28;;;;;;;11.93;50.41;99654.44;10586468;28;20092;-74
2021/04/30 15:46:08;;;;;;;10.00;6.38;;;;;;;11.94;50.78;99664.88;10584715;28;20139;-74
2021/04/30 15:51:10;;;;;;;6.30;5.72;;;;;;;11.81;51.15;99668.94;10584930;28;20062;-74
2021/04/30 15:56:12;;;;;;;6.88;6.35;;;;;;;11.88;51.59;99675.69;10583764;28;20047;-74
2021/04/30 16:01:13;;;;;;;8.05;7.40;;;;;;;11.80;52.62;99680.41;10584462;28;20123;-74
2021/04/30 16:06:14;;;;;;;5.85;5.45;;;;;;;11.90;51.93;99680.88;10583517;28;20040;-74
2021/04/30 16:11:16;;;;;;;13.18;7.65;;;;;;;11.74;53.69;99689.44;10582172;28;20044;-74
2021/04/30 16:16:17;;;;;;;8.65;7.88;;;;;;;11.70;54.52;99689.63;10584680;28;20052;-73
2021/04/30 16:21:18;;;;;;;9.07;7.63;;;;;;;11.57;54.88;99684.84;10588096;28;20409;-74
2021/04/30 16:26:20;;;;;;;21.20;8.45;;;;;;;11.55;55.00;99686.72;10591816;28;20047;-73
2021/04/30 16:31:22;;;;;;;9.60;8.85;;;;;;;11.52;55.39;99693.88;10590188;28;20046;-73
2021/04/30 16:36:23;;;;;;;8.10;7.60;;;;;;;11.35;55.78;99689.28;10589583;28;20119;-72
2021/04/30 16:41:26;;;;;;;8.10;7.55;;;;;;;11.20;55.84;99682.88;10591350;28;20493;-72
2021/04/30 16:46:28;;;;;;;8.55;7.85;;;;;;;11.26;55.84;99687.03;10587947;28;20064;-73
2021/04/30 16:51:33;;;;;;;10.27;7.85;;;;;;;11.18;56.33;99695.22;10591246;28;20040;-72
2021/04/30 16:56:37;;;;;;;7.30;6.68;;;;;;;11.18;55.73;99689.09;10591508;28;20116;-72
2021/04/30 17:01:39;;;;;;;7.25;6.75;;;;;;;11.20;55.00;99695.13;10589693;28;20096;-72
2021/04/30 17:06:40;;;;;;;6.80;6.40;;;;;;;11.01;56.18;99700.28;10570178;28;20073;-72
2021/04/30 17:11:42;;;;;;;7.95;7.30;;;;;;;11.03;56.04;99698.47;10590313;28;20039;-71
2021/04/30 17:16:43;;;;;;;9.00;8.27;;;;;;;10.87;56.84;99700.81;10581566;28;20043;-73
2021/04/30 17:21:44;;;;;;;8.93;8.32;;;;;;;10.80;56.92;99699.31;10574628;28;20044;-73
2021/04/30 17:26:47;;;;;;;9.30;8.70;;;;;;;10.71;57.42;99695.25;10574135;22;20060;-81
2021/04/30 17:31:48;;;;;;;10.13;9.43;;;;;;;10.55;58.13;99709.91;10472643;28;20052;-81
2021/04/30 17:36:50;;;;;;;9.63;8.90;;;;;;;10.40;57.87;99710.47;10492905;28;20168;-82
2021/04/30 17:41:51;;;;;;;12.73;11.43;;;;;;;10.49;57.90;99713.63;10477432;28;20092;-81
2021/04/30 17:46:53;;;;;;;9.25;8.65;;;;;;;10.54;57.29;99714.31;10493589;28;20037;-81
2021/04/30 17:51:54;;;;;;;7.80;7.30;;;;;;;10.46;57.14;99715.50;10510525;28;20048;-79
2021/04/30 17:56:56;;;;;;;7.75;7.22;;;;;;;10.33;57.66;99702.81;10493259;28;20033;-80
2021/04/30 18:01:57;;;;;;;7.70;7.20;;;;;;;10.15;57.73;99692.06;10493175;28;20029;-81
2021/04/30 18:06:58;;;;;;;8.20;7.60;;;;;;;10.13;57.98;99684.22;10492965;28;20049;-81
2021/04/30 18:12:00;;;;;;;8.63;8.02;;;;;;;10.05;58.21;99687.16;10476036;28;20044;-79
2021/04/30 18:17:04;;;;;;;11.45;10.65;;;;;;;10.36;57.89;99688.72;10491309;28;20029;-79
2021/04/30 18:22:05;;;;;;;8.95;8.25;;;;;;;10.37;57.82;99679.06;10491523;28;20094;-78
2021/04/30 18:27:07;;;;;;;8.77;8.07;;;;;;;10.25;58.27;99677.72;10503757;28;20089;-80
2021/04/30 18:32:09;;;;;;;8.68;8.05;;;;;;;10.14;58.18;99683.34;10548684;28;20036;-79
2021/04/30 18:37:11;;;;;;;8.38;7.88;;;;;;;10.03;58.92;99695.97;10547030;28;20147;-78
2021/04/30 18:42:12;;;;;;;8.90;8.30;;;;;;;9.98;57.99;99706.66;10543976;28;20052;-80
2021/04/30 18:47:15;;;;;;;8.82;8.23;;;;;;;9.89;58.32;99729.72;10528761;28;20044;-82
2021/04/30 18:52:16;;;;;;;8.75;8.18;;;;;;;9.90;57.48;99745.44;10538762;28;20067;-81
2021/04/30 18:57:18;;;;;;;8.32;7.72;;;;;;;9.90;58.14;99757.69;10543721;28;20078;-78
2021/04/30 19:02:19;;;;;;;8.15;7.65;;;;;;;9.80;58.50;99762.41;10546424;28;20052;-81
2021/04/30 19:07:22;;;;;;;8.90;8.30;;;;;;;9.97;58.63;99743.47;10546315;28;20051;-80
2021/04/30 19:12:34;;;;;;;8.98;8.38;;;;;;;9.80;58.91;99747.50;10548350;28;20032;-81
2021/04/30 19:17:39;;;;;;;9.32;8.65;;;;;;;9.84;58.97;99748.28;10548723;28;20035;-80
2021/04/30 19:22:42;;;;;;;9.75;9.05;;;;;;;9.86;58.68;99742.03;10495805;22;20052;-74
2021/04/30 19:27:51;;;;;;;11.98;11.18;;;;;;;9.72;60.04;99746.03;10508309;28;20508;-74
2021/04/30 19:32:54;;;;;;;10.15;9.45;;;;;;;9.61;60.15;99751.66;10504600;28;20041;-74
2021/04/30 19:37:56;;;;;;;10.57;9.88;;;;;;;9.57;60.26;99745.63;10505680;28;20098;-73
2021/04/30 19:42:58;;;;;;;11.43;10.63;;;;;;;9.71;60.29;99737.31;10486433;28;20048;-73
2021/04/30 19:48:00;;;;;;;10.82;10.10;;;;;;;9.56;60.61;99736.06;10504064;28;20055;-73
2021/04/30 19:53:01;;;;;;;11.40;10.60;;;;;;;9.55;60.67;99752.69;10471247;28;20409;-73
2021/04/30 19:58:03;;;;;;;10.27;9.57;;;;;;;9.75;60.06;99754.69;10495739;28;20091;-74
2021/04/30 20:03:04;;;;;;;10.40;9.65;;;;;;;9.52;60.78;99767.69;10496346;28;20108;-72
2021/04/30 20:08:07;;;;;;;10.77;10.05;;;;;;;9.70;61.43;99755.75;10554466;28;20051;-73
2021/04/30 20:13:08;;;;;;;10.80;9.90;;;;;;;9.49;61.83;99759.91;10536734;28;20496;-73
2021/04/30 20:18:09;;;;;;;11.57;10.77;;;;;;;9.48;61.69;99747.69;10496544;28;20048;-75
2021/04/30 20:23:11;;;;;;;10.70;9.98;;;;;;;9.58;61.26;99770.97;10545759;28;20043;-73
2021/04/30 20:28:13;;;;;;;11.18;10.20;;;;;;;9.52;61.37;99789.53;10537812;28;20029;-73
2021/04/30 20:33:14;;;;;;;11.50;10.70;;;;;;;9.52;61.01;99776.41;10495176;28;20402;-73
2021/04/30 20:38:21;;;;;;;12.35;11.45;;;;;;;9.49;61.14;99778.28;10527283;28;20108;-73
2021/04/30 20:43:22;;;;;;;12.37;11.47;;;;;;;9.49;60.89;99775.66;10554672;28;20169;-73
2021/04/30 20:48:23;;;;;;;12.75;11.85;;;;;;;9.84;60.02;99774.53;10511944;28;20068;-73
2021/04/30 20:53:25;;;;;;;17.45;16.15;;;;;;;9.42;60.88;99772.34;10476373;28;20056;-73
2021/04/30 20:58:26;;;;;;;23.65;21.85;;;;;;;9.75;60.35;99774.81;10510568;28;20045;-73
2021/04/30 21:03:28;;;;;;;17.75;16.45;;;;;;;9.97;59.81;99765.31;10476391;28;20078;-73
2021/04/30 21:08:29;;;;;;;15.40;14.30;;;;;;;9.68;60.42;99768.91;10508686;28;20048;-73
2021/04/30 21:18:51;;;;;;;21.52;19.85;;;;;;;9.38;61.15;99777.72;10512055;28;20052;-73
2021/04/30 21:23:52;;;;;;;19.00;17.33;;;;;;;9.45;60.68;99788.00;10509620;28;20055;-73
2021/04/30 21:28:53;;;;;;;60.47;42.65;;;;;;;9.47;60.88;99794.03;10508938;28;20048;-73
2021/04/30 21:33:54;;;;;;;20.92;19.13;;;;;;;9.48;60.68;99798.41;10509499;28;20040;-72
2021/04/30 21:38:56;;;;;;;20.77;19.30;;;;;;;9.48;61.25;99782.66;10489997;28;20048;-75
2021/04/30 21:43:57;;;;;;;19.73;18.23;;;;;;;9.58;61.06;99794.59;10490919;28;20047;-73
2021/04/30 21:48:59;;;;;;;22.08;20.45;;;;;;;9.82;59.76;99794.69;10489322;28;20087;-73
2021/04/30 21:54:02;;;;;;;21.48;19.38;;;;;;;9.61;60.75;99806.75;10505268;28;20437;-73
2021/04/30 21:59:04;;;;;;;20.25;18.50;;;;;;;9.44;60.91;99802.03;10504745;28;20079;-73
2021/04/30 22:04:11;;;;;;;21.10;19.23;;;;;;;9.38;60.85;99801.34;10503422;28;20049;-72
2021/04/30 22:09:21;;;;;;;19.60;18.10;;;;;;;9.46;60.67;99830.84;10486516;28;20052;-73
2021/04/30 22:14:24;;;;;;;19.17;17.67;;;;;;;9.28;61.26;99827.00;10502012;28;20044;-72
2021/04/30 22:19:25;;;;;;;20.30;18.60;;;;;;;9.37;60.66;99815.38;10502506;28;20127;-72
2021/04/30 22:24:26;;;;;;;18.05;16.65;;;;;;;9.32;60.26;99810.25;10504008;28;20539;-72
2021/04/30 22:29:28;;;;;;;20.95;19.45;;;;;;;9.29;60.21;99805.97;10502825;28;20478;-73
2021/04/30 22:34:29;;;;;;;17.98;16.50;;;;;;;9.34;60.41;99792.69;10502568;28;20044;-71
2021/04/30 22:39:30;;;;;;;17.15;15.75;;;;;;;9.35;60.13;99783.94;10502014;28;20120;-71
2021/04/30 22:44:32;;;;;;;18.63;17.27;;;;;;;9.23;60.87;99794.81;10503691;28;20044;-71
2021/04/30 22:49:33;;;;;;;20.23;18.73;;;;;;;9.29;61.01;99792.00;10502921;28;20040;-71
2021/04/30 22:54:35;;;;;;;20.10;18.50;;;;;;;9.32;60.68;99802.41;10503396;28;20048;-72
2021/04/30 22:59:36;;;;;;;19.38;17.88;;;;;;;9.34;60.67;99803.19;10502296;28;20072;-73
2021/04/30 23:04:37;;;;;;;20.58;18.80;;;;;;;9.19;60.58;99815.00;10503131;28;20505;-73
2021/04/30 23:09:39;;;;;;;20.58;18.77;;;;;;;9.16;61.19;99811.63;10502671;28;20062;-71
2021/04/30 23:14:40;;;;;;;20.80;19.00;;;;;;;9.18;61.26;99818.56;10468476;28;20051;-71
2021/04/30 23:19:42;;;;;;;19.25;17.65;;;;;;;8.98;61.69;99813.88;10484324;28;20036;-73
2021/04/30 23:24:44;;;;;;;23.55;21.50;;;;;;;9.07;61.47;99813.63;10501438;28;20048;-72